Time;durP1;ratioP1;P1;durP2;ratioP2;P2;SDS_P1;SDS_P2;PMS_P1;PMS_P2;Temp;Humidity;BMP_temperature;BMP_pressure;BME280_temperature;BME280_humidity;BME280_pressure;Samples;Min_cycle;Max_cycle;Signal;HPM_P1;HPM_P2
2021/03/31 00:00:04;;;;;;;;;;;;;;;21.46;29.48;100921.91;4415590;32;19978;-49
2021/03/31 00:02:30;;;;;;;;;;;;;;;21.54;29.37;100916.72;4416712;32;20029;-54
2021/03/31 00:04:56;;;;;;;;;;;;;;;21.49;29.40;100919.31;4416600;32;20021;-53
2021/03/31 00:07:22;;;;;;;;;;;;;;;21.45;29.49;100906.88;4406855;32;20383;-52
2021/03/31 00:09:48;;;;;;;;;;;;;;;21.35;29.61;100908.47;4407075;32;20326;-53
2021/03/31 00:12:14;;;;;;;;;;;;;;;21.30;29.65;100908.41;4416312;32;19953;-53
2021/03/31 00:14:40;;;;;;;;;;;;;;;21.32;29.60;100911.06;4416185;32;19961;-52
2021/03/31 00:17:06;;;;;;;;;;;;;;;21.31;29.60;100909.28;4416355;32;19950;-50
2021/03/31 00:19:32;;;;;;;;;;;;;;;21.20;29.76;100912.66;4417196;32;19972;-53
2021/03/31 00:21:57;;;;;;;;;;;;;;;21.20;29.74;100910.00;4414963;32;20613;-55
2021/03/31 00:24:23;;;;;;;;;;;;;;;21.19;29.72;100905.56;4417260;32;20038;-52
2021/03/31 00:26:49;;;;;;;;;;;;;;;21.21;29.71;100905.59;4416556;32;19954;-52
2021/03/31 00:29:15;;;;;;;;;;;;;;;21.18;29.76;100909.09;4417022;32;19973;-52
2021/03/31 00:31:41;;;;;;;;;;;;;;;21.15;29.70;100908.13;4416753;32;19950;-49
2021/03/31 00:34:07;;;;;;;;;;;;;;;21.19;29.68;100902.91;4416387;32;19970;-52
2021/03/31 00:36:33;;;;;;;;;;;;;;;21.20;29.61;100901.19;4415701;32;19954;-48
2021/03/31 00:38:59;;;;;;;;;;;;;;;21.22;29.55;100896.78;4416783;32;19980;-50
2021/03/31 00:41:25;;;;;;;;;;;;;;;21.25;29.48;100901.25;4416838;32;19977;-51
2021/03/31 00:43:50;;;;;;;;;;;;;;;21.18;29.54;100900.25;4418150;32;20004;-51
2021/03/31 00:46:16;;;;;;;;;;;;;;;21.17;29.53;100895.81;4419571;32;19958;-50
2021/03/31 00:48:42;;;;;;;;;;;;;;;21.23;29.48;100890.63;4419450;32;20379;-55
2021/03/31 00:51:08;;;;;;;;;;;;;;;21.30;29.33;100886.31;4418008;32;19963;-50
2021/03/31 00:53:34;;;;;;;;;;;;;;;21.29;29.30;100882.75;4419029;32;19982;-52
2021/03/31 00:56:00;;;;;;;;;;;;;;;21.22;29.43;100883.53;4419168;32;20365;-49
2021/03/31 00:58:26;;;;;;;;;;;;;;;21.25;29.43;100877.41;4418972;32;19942;-48
2021/03/31 01:00:52;;;;;;;;;;;;;;;21.25;29.25;100862.41;4419456;32;19934;-50
2021/03/31 01:03:17;;;;;;;;;;;;;;;21.32;29.24;100859.00;4418016;32;19958;-51
2021/03/31 01:05:43;;;;;;;;;;;;;;;21.37;29.21;100856.44;4419307;32;20334;-54
2021/03/31 01:08:09;;;;;;;;;;;;;;;21.31;29.31;100862.50;4417134;32;19997;-53
2021/03/31 01:10:35;;;;;;;;;;;;;;;21.33;29.14;100865.16;4419280;32;19991;-49
2021/03/31 01:13:01;;;;;;;;;;;;;;;21.29;29.24;100858.91;4420045;32;20278;-53
2021/03/31 01:15:27;;;;;;;;;;;;;;;21.35;29.10;100860.78;4417843;32;20023;-52
2021/03/31 01:17:53;;;;;;;;;;;;;;;21.39;29.02;100856.44;4418065;32;19958;-54
2021/03/31 01:20:19;;;;;;;;;;;;;;;21.39;29.20;100856.44;4418661;32;19951;-51
2021/03/31 01:22:45;;;;;;;;;;;;;;;21.36;29.00;100862.59;4417839;32;19991;-53
2021/03/31 01:25:10;;;;;;;;;;;;;;;21.39;28.95;100859.97;4418446;32;19994;-52
2021/03/31 01:27:36;;;;;;;;;;;;;;;21.32;28.99;100856.34;4418474;32;19991;-52
2021/03/31 01:30:02;;;;;;;;;;;;;;;21.33;29.00;100842.22;4419477;32;19942;-53
2021/03/31 01:32:28;;;;;;;;;;;;;;;21.34;28.89;100851.97;4419195;32;20349;-49
2021/03/31 01:34:54;;;;;;;;;;;;;;;21.33;29.02;100843.97;4419415;32;19961;-50
2021/03/31 01:37:20;;;;;;;;;;;;;;;21.30;29.01;100842.19;4416767;32;20436;-52
2021/03/31 01:39:47;;;;;;;;;;;;;;;21.24;29.13;100842.06;4418427;32;19956;-50
2021/03/31 01:42:13;;;;;;;;;;;;;;;21.25;29.09;100841.22;4418247;32;20066;-53
2021/03/31 01:44:39;;;;;;;;;;;;;;;21.30;29.05;100844.84;4418613;32;19962;-51
2021/03/31 01:47:05;;;;;;;;;;;;;;;21.28;29.18;100838.59;4417488;32;20030;-50
2021/03/31 01:49:31;;;;;;;;;;;;;;;21.25;29.08;100840.34;4416850;32;19943;-50
2021/03/31 01:51:57;;;;;;;;;;;;;;;21.23;29.24;100836.75;4417511;32;20549;-51
2021/03/31 01:54:22;;;;;;;;;;;;;;;21.16;29.33;100835.75;4417984;32;20098;-52
2021/03/31 01:56:48;;;;;;;;;;;;;;;21.15;29.27;100834.88;4416614;32;20330;-53
2021/03/31 01:59:15;;;;;;;;;;;;;;;21.12;29.26;100826.00;4418203;32;19961;-49
2021/03/31 02:01:40;;;;;;;;;;;;;;;21.15;29.56;100831.31;4418130;32;20023;-49
2021/03/31 02:04:06;;;;;;;;;;;;;;;21.11;29.26;100830.37;4417514;32;19934;-50
2021/03/31 02:06:32;;;;;;;;;;;;;;;21.13;29.26;100830.41;4418072;32;20398;-52
2021/03/31 02:08:58;;;;;;;;;;;;;;;21.09;29.43;100823.31;4410502;32;19958;-47
2021/03/31 02:11:24;;;;;;;;;;;;;;;21.05;29.39;100828.56;4416187;32;19991;-52
2021/03/31 02:13:50;;;;;;;;;;;;;;;21.04;29.37;100821.44;4418185;32;19997;-49
2021/03/31 02:16:16;;;;;;;;;;;;;;;21.08;29.31;100819.75;4417829;32;19946;-49
2021/03/31 02:18:42;;;;;;;;;;;;;;;21.05;29.39;100823.25;4417821;32;19946;-50
2021/03/31 02:21:08;;;;;;;;;;;;;;;21.04;29.51;100821.44;4416920;32;19954;-52
2021/03/31 02:23:35;;;;;;;;;;;;;;;20.98;29.72;100820.44;4418919;32;19962;-52
2021/03/31 02:26:01;;;;;;;;;;;;;;;21.01;29.62;100816.09;4417762;32;19986;-52
2021/03/31 02:28:27;;;;;;;;;;;;;;;21.01;29.54;100816.09;4417963;32;19983;-50
2021/03/31 02:30:53;;;;;;;;;;;;;;;20.98;29.48;100820.44;4417803;32;20357;-51
2021/03/31 02:33:18;;;;;;;;;;;;;;;20.94;29.52;100814.25;4416614;32;20006;-53
2021/03/31 02:35:44;;;;;;;;;;;;;;;20.89;29.66;100806.22;4417910;32;20323;-52
2021/03/31 02:38:10;;;;;;;;;;;;;;;20.94;29.46;100798.34;4413930;32;19954;-49
2021/03/31 02:40:36;;;;;;;;;;;;;;;20.94;29.49;100803.66;4417318;32;19969;-53
2021/03/31 02:43:02;;;;;;;;;;;;;;;20.95;29.43;100800.13;4418430;32;19971;-48
2021/03/31 02:45:28;;;;;;;;;;;;;;;20.98;29.39;100800.19;4417057;32;19958;-49
2021/03/31 02:47:54;;;;;;;;;;;;;;;20.97;29.38;100793.09;4408898;32;19962;-52
2021/03/31 02:50:20;;;;;;;;;;;;;;;20.91;29.45;100788.59;4401317;32;19951;-53
2021/03/31 02:52:46;;;;;;;;;;;;;;;20.87;29.49;100783.22;4407199;32;19954;-53
2021/03/31 02:55:12;;;;;;;;;;;;;;;20.91;29.46;100793.88;4417407;32;19958;-53
2021/03/31 02:57:38;;;;;;;;;;;;;;;20.86;29.52;100789.37;4418499;32;19970;-50
2021/03/31 03:00:03;;;;;;;;;;;;;;;20.85;29.50;100777.88;4417567;32;20330;-51
2021/03/31 03:02:29;;;;;;;;;;;;;;;20.89;29.54;100779.75;4417215;32;19976;-49
2021/03/31 03:04:55;;;;;;;;;;;;;;;20.90;29.37;100785.91;4417948;32;19958;-52
2021/03/31 03:07:21;;;;;;;;;;;;;;;20.90;29.32;100780.63;4416454;32;19938;-51
2021/03/31 03:09:47;;;;;;;;;;;;;;;20.86;29.47;100778.78;4418215;32;20232;-52
2021/03/31 03:12:13;;;;;;;;;;;;;;;20.87;29.45;100770.88;4417225;32;19991;-54
2021/03/31 03:14:39;;;;;;;;;;;;;;;20.86;29.56;100776.16;4416898;32;19968;-48
2021/03/31 03:17:05;;;;;;;;;;;;;;;20.86;29.59;100778.78;4415618;32;20248;-50
2021/03/31 03:19:31;;;;;;;;;;;;;;;20.83;29.61;100776.97;4417243;32;19954;-51
2021/03/31 03:21:56;;;;;;;;;;;;;;;20.80;29.60;100776.91;4417836;32;19956;-50
2021/03/31 03:24:22;;;;;;;;;;;;;;;20.68;29.86;100780.25;4417708;32;20037;-50
2021/03/31 03:26:48;;;;;;;;;;;;;;;20.74;29.96;100771.50;4415858;32;19946;-51
2021/03/31 03:29:14;;;;;;;;;;;;;;;20.71;30.03;100772.34;4415861;32;19961;-51
2021/03/31 03:31:40;;;;;;;;;;;;;;;20.70;30.06;100772.31;4415967;32;19989;-52
2021/03/31 03:34:06;;;;;;;;;;;;;;;20.67;29.90;100773.13;4415146;32;19953;-50
2021/03/31 03:36:32;;;;;;;;;;;;;;;20.70;29.75;100764.38;4417690;32;19954;-52
2021/03/31 03:38:58;;;;;;;;;;;;;;;20.68;29.98;100769.66;4415933;32;20327;-52
2021/03/31 03:41:24;;;;;;;;;;;;;;;20.64;29.80;100768.72;4417544;32;19942;-52
2021/03/31 03:43:49;;;;;;;;;;;;;;;20.58;30.07;100767.72;4416448;32;19968;-51
2021/03/31 03:46:15;;;;;;;;;;;;;;;20.59;29.97;100769.50;4417286;32;20317;-50
2021/03/31 03:48:41;;;;;;;;;;;;;;;20.67;29.99;100767.84;4417527;32;19938;-52
2021/03/31 03:51:07;;;;;;;;;;;;;;;20.68;29.77;100768.75;4416207;32;19942;-51
2021/03/31 03:53:33;;;;;;;;;;;;;;;20.67;29.86;100773.13;4417455;32;19985;-52
2021/03/31 03:55:59;;;;;;;;;;;;;;;20.66;30.08;100770.50;4418096;32;19950;-53
2021/03/31 03:58:25;;;;;;;;;;;;;;;20.56;30.47;100769.41;4415220;32;20343;-53
2021/03/31 04:00:51;;;;;;;;;;;;;;;20.61;30.10;100773.03;4416379;32;20425;-49
2021/03/31 04:03:17;;;;;;;;;;;;;;;20.73;29.92;100765.31;4415741;32;19938;-52
2021/03/31 04:05:43;;;;;;;;;;;;;;;20.70;29.86;100773.22;4418126;32;20579;-48
2021/03/31 04:08:09;;;;;;;;;;;;;;;20.68;29.77;100769.66;4416653;32;20017;-49
2021/03/31 04:10:35;;;;;;;;;;;;;;;20.66;30.08;100771.34;4417897;32;20382;-48
2021/03/31 04:13:00;;;;;;;;;;;;;;;20.55;30.09;100767.62;4418262;32;20037;-51
2021/03/31 04:15:27;;;;;;;;;;;;;;;20.64;30.10;100762.50;4416874;32;19973;-49
2021/03/31 04:17:52;;;;;;;;;;;;;;;20.58;30.19;100762.41;4416882;32;19976;-49
2021/03/31 04:20:18;;;;;;;;;;;;;;;20.64;29.97;100763.41;4416369;32;20295;-51
2021/03/31 04:22:44;;;;;;;;;;;;;;;20.58;30.00;100759.78;4419431;32;19946;-49
2021/03/31 04:25:10;;;;;;;;;;;;;;;20.45;30.19;100756.91;4419785;32;19986;-50
2021/03/31 04:27:36;;;;;;;;;;;;;;;20.49;30.34;100753.44;4419869;32;19946;-50
2021/03/31 04:30:02;;;;;;;;;;;;;;;20.54;30.06;100758.81;4420868;32;19934;-48
2021/03/31 04:32:28;;;;;;;;;;;;;;;20.48;30.20;100748.13;4419193;32;20374;-51
2021/03/31 04:34:54;;;;;;;;;;;;;;;20.49;30.18;100753.44;4420271;32;19964;-54
2021/03/31 04:37:20;;;;;;;;;;;;;;;20.48;30.13;100746.38;4418760;32;19968;-54
2021/03/31 04:39:46;;;;;;;;;;;;;;;20.54;30.17;100748.25;4417999;32;20342;-50
2021/03/31 04:42:11;;;;;;;;;;;;;;;20.63;29.84;100753.69;4418047;32;19964;-50
2021/03/31 04:44:37;;;;;;;;;;;;;;;20.66;29.77;100752.84;4420374;32;19980;-52
2021/03/31 04:47:03;;;;;;;;;;;;;;;20.72;29.74;100755.59;4418585;32;19934;-52
2021/03/31 04:49:29;;;;;;;;;;;;;;;20.71;29.52;100753.81;4415216;32;19962;-53
2021/03/31 04:51:55;;;;;;;;;;;;;;;20.64;29.78;100752.81;4403977;32;19962;-51
2021/03/31 04:54:21;;;;;;;;;;;;;;;20.72;29.84;100755.59;4407553;32;19977;-49
2021/03/31 04:56:47;;;;;;;;;;;;;;;20.69;29.77;100750.25;4419666;32;20027;-53
2021/03/31 04:59:13;;;;;;;;;;;;;;;20.66;29.78;100759.91;4416655;32;20330;-52
2021/03/31 05:01:39;;;;;;;;;;;;;;;20.65;29.70;100756.34;4416002;32;19954;-53
2021/03/31 05:04:05;;;;;;;;;;;;;;;20.57;30.21;100750.94;4417912;32;19946;-52
2021/03/31 05:06:31;;;;;;;;;;;;;;;20.51;29.91;100748.19;4419804;32;19968;-53
2021/03/31 05:08:57;;;;;;;;;;;;;;;20.50;30.00;100754.34;4420071;32;20043;-50
2021/03/31 05:11:23;;;;;;;;;;;;;;;20.50;30.20;100755.22;4418729;32;20054;-51
2021/03/31 05:13:49;;;;;;;;;;;;;;;20.58;29.98;100751.84;4419667;32;19972;-50
2021/03/31 05:16:15;;;;;;;;;;;;;;;20.56;29.93;100743.84;4418374;32;19958;-52
2021/03/31 05:18:41;;;;;;;;;;;;;;;20.58;30.12;100746.53;4417482;32;20007;-52
2021/03/31 05:21:07;;;;;;;;;;;;;;;20.55;30.18;100746.47;4416791;32;19954;-49
2021/03/31 05:23:33;;;;;;;;;;;;;;;20.61;29.86;100751.87;4417656;32;19958;-49
2021/03/31 05:25:59;;;;;;;;;;;;;;;20.63;29.86;100744.84;4417055;32;19946;-51
2021/03/31 05:28:25;;;;;;;;;;;;;;;20.66;29.80;100750.19;4418262;32;19986;-49
2021/03/31 05:30:50;;;;;;;;;;;;;;;20.60;29.91;100745.69;4417061;32;20029;-50
2021/03/31 05:33:16;;;;;;;;;;;;;;;20.60;29.89;100744.81;4417940;32;20340;-50
2021/03/31 05:35:42;;;;;;;;;;;;;;;20.53;30.00;100758.78;4414587;32;20406;-50
2021/03/31 05:38:08;;;;;;;;;;;;;;;20.50;30.13;100755.22;4415684;32;19954;-49
2021/03/31 05:40:34;;;;;;;;;;;;;;;20.49;30.07;100748.16;4416967;32;20327;-49
2021/03/31 05:43:00;;;;;;;;;;;;;;;20.54;29.99;100750.88;4417354;32;19992;-52
2021/03/31 05:45:26;;;;;;;;;;;;;;;20.53;29.96;100748.19;4415432;32;19988;-50
2021/03/31 05:47:52;;;;;;;;;;;;;;;20.50;30.10;100755.22;4416495;32;19958;-53
2021/03/31 05:50:18;;;;;;;;;;;;;;;20.45;30.13;100751.63;4412956;32;20019;-48
2021/03/31 05:52:44;;;;;;;;;;;;;;;20.54;29.93;100753.53;4406597;32;19970;-50
2021/03/31 05:55:10;;;;;;;;;;;;;;;20.58;29.80;100746.53;4413736;32;20042;-49
2021/03/31 05:57:36;;;;;;;;;;;;;;;20.56;29.83;100749.16;4401659;32;19965;-52
2021/03/31 06:00:02;;;;;;;;;;;;;;;20.55;29.93;100752.66;4402278;32;19943;-51
2021/03/31 06:02:28;;;;;;;;;;;;;;;20.56;29.93;100748.25;4416818;32;20381;-50
2021/03/31 06:04:54;;;;;;;;;;;;;;;20.50;30.34;100749.94;4417313;32;19965;-51
2021/03/31 06:07:20;;;;;;;;;;;;;;;20.54;30.23;100749.97;4415641;32;19982;-51
2021/03/31 06:09:46;;;;;;;;;;;;;;;20.51;30.17;100748.19;4417526;32;20368;-50
2021/03/31 06:12:12;;;;;;;;;;;;;;;20.58;30.10;100757.12;4416916;32;19951;-48
2021/03/31 06:14:40;;;;;;;;;;;;;;;20.54;30.06;100761.47;4417057;32;19954;-49
2021/03/31 06:17:07;;;;;;;;;;;;;;;20.50;30.20;100759.63;4415310;32;19964;-50
2021/03/31 06:19:34;;;;;;;;;;;;;;;20.56;30.23;100764.12;4416877;32;19988;-47
2021/03/31 06:22:17;;;;;;;;;;;;;;;20.54;30.37;100763.22;4415933;32;20318;-54
2021/03/31 06:24:46;;;;;;;;;;;;;;;20.57;30.07;100765.94;4417309;32;19954;-51
2021/03/31 06:27:12;;;;;;;;;;;;;;;20.59;30.35;100769.50;4416337;32;20232;-49
2021/03/31 06:29:43;;;;;;;;;;;;;;;20.55;30.22;100754.41;4416373;32;20002;-52
2021/03/31 06:32:08;;;;;;;;;;;;;;;20.60;30.21;100760.69;4415326;32;20300;-48
2021/03/31 06:34:34;;;;;;;;;;;;;;;20.59;30.13;100759.78;4417038;32;19976;-52
2021/03/31 06:37:04;;;;;;;;;;;;;;;20.64;30.07;100758.13;4403972;32;20015;-48
2021/03/31 06:39:32;;;;;;;;;;;;;;;20.60;30.23;100758.03;4401586;32;19987;-52
2021/03/31 06:41:58;;;;;;;;;;;;;;;20.63;30.28;100761.63;4410390;32;20327;-49
2021/03/31 06:44:27;;;;;;;;;;;;;;;20.64;30.12;100754.56;4414299;32;19954;-50
2021/03/31 06:47:09;;;;;;;;;;;;;;;20.63;30.17;100761.63;4415759;32;19957;-48
2021/03/31 06:49:35;;;;;;;;;;;;;;;20.59;30.18;100753.62;4415354;32;19951;-48
2021/03/31 06:52:01;;;;;;;;;;;;;;;20.66;30.14;100760.78;4416753;32;20000;-49
2021/03/31 06:54:27;;;;;;;;;;;;;;;20.69;30.14;100763.50;4415711;32;19981;-50
2021/03/31 06:56:53;;;;;;;;;;;;;;;20.64;30.17;100759.88;4414921;32;19996;-51
2021/03/31 06:59:19;;;;;;;;;;;;;;;20.68;30.20;100759.06;4415212;32;20332;-50
2021/03/31 07:01:45;;;;;;;;;;;;;;;20.60;30.37;100756.25;4416060;32;19954;-48
2021/03/31 07:04:11;;;;;;;;;;;;;;;20.70;30.24;100749.41;4415991;32;19954;-50
2021/03/31 07:06:37;;;;;;;;;;;;;;;20.71;30.12;100753.81;4415671;32;19958;-50
2021/03/31 07:09:03;;;;;;;;;;;;;;;20.69;30.24;100744.97;4415100;32;20331;-48
2021/03/31 07:11:29;;;;;;;;;;;;;;;20.68;30.23;100753.78;4416084;32;19954;-51
2021/03/31 07:13:55;;;;;;;;;;;;;;;20.73;30.17;100746.78;4415715;32;20353;-50
2021/03/31 07:16:21;;;;;;;;;;;;;;;20.77;30.06;100748.63;4415200;32;19990;-48
2021/03/31 07:18:47;;;;;;;;;;;;;;;20.82;30.20;100747.84;4415885;32;19975;-48
2021/03/31 07:21:13;;;;;;;;;;;;;;;20.74;30.38;100753.88;4415221;32;20032;-47
2021/03/31 07:23:39;;;;;;;;;;;;;;;20.76;30.31;100752.13;4415660;32;20017;-52
2021/03/31 07:26:05;;;;;;;;;;;;;;;20.81;30.24;100754.00;4415370;32;19978;-50
2021/03/31 07:28:32;;;;;;;;;;;;;;;20.85;30.19;100755.84;4400794;32;19954;-48
2021/03/31 07:30:59;;;;;;;;;;;;;;;20.77;30.37;100745.97;4411658;32;19962;-52
2021/03/31 07:33:25;;;;;;;;;;;;;;;20.75;30.30;100745.06;4416236;32;20041;-49
2021/03/31 07:35:52;;;;;;;;;;;;;;;20.83;30.30;100744.34;4415129;32;19985;-50
2021/03/31 07:38:18;;;;;;;;;;;;;;;20.75;30.48;100750.34;4414333;32;19976;-48
2021/03/31 07:40:44;;;;;;;;;;;;;;;20.77;30.36;100748.63;4416381;32;19955;-47
2021/03/31 07:43:10;;;;;;;;;;;;;;;20.72;30.50;100752.97;4414265;32;19992;-50
2021/03/31 07:45:36;;;;;;;;;;;;;;;20.78;30.41;100750.41;4414913;32;20410;-52
2021/03/31 07:48:02;;;;;;;;;;;;;;;20.87;30.34;100752.37;4415130;32;19965;-51
2021/03/31 07:50:28;;;;;;;;;;;;;;;20.89;30.37;100752.37;4414488;32;21716;-47
2021/03/31 07:52:54;;;;;;;;;;;;;;;20.87;30.39;100754.09;4415570;32;19946;-48
2021/03/31 07:55:20;;;;;;;;;;;;;;;20.76;30.67;100749.47;4417577;32;19962;-47
2021/03/31 07:57:46;;;;;;;;;;;;;;;20.69;30.64;100750.25;4418640;32;20275;-48
2021/03/31 08:00:12;;;;;;;;;;;;;;;20.70;30.73;100757.34;4417640;32;20387;-50
2021/03/31 08:02:37;;;;;;;;;;;;;;;20.86;30.52;100754.97;4418639;32;20001;-47
2021/03/31 08:05:03;;;;;;;;;;;;;;;20.89;30.46;100755.00;4417925;32;20036;-48
2021/03/31 08:07:31;;;;;;;;;;;;;;;20.91;30.51;100753.28;4417544;32;20343;-51
2021/03/31 08:09:57;;;;;;;;;;;;;;;20.93;30.35;100748.94;4417708;32;20006;-52
2021/03/31 08:12:23;;;;;;;;;;;;;;;20.92;30.48;100752.41;4418270;32;20858;-50
2021/03/31 08:14:49;;;;;;;;;;;;;;;20.95;30.38;100756.88;4419463;32;19954;-51
2021/03/31 08:17:15;;;;;;;;;;;;;;;20.93;30.42;100754.22;4417307;32;19973;-52
2021/03/31 08:19:41;;;;;;;;;;;;;;;20.97;30.49;100753.38;4418024;32;20028;-48
2021/03/31 08:22:07;;;;;;;;;;;;;;;20.97;30.44;100752.47;4417581;32;20390;-52
2021/03/31 08:24:33;;;;;;;;;;;;;;;20.97;30.49;100758.69;4417934;32;19950;-52
2021/03/31 08:27:00;;;;;;;;;;;;;;;20.99;30.44;100758.69;4417696;32;20409;-51
2021/03/31 08:29:27;;;;;;;;;;;;;;;20.92;30.63;100752.41;4418434;32;19964;-48
2021/03/31 08:31:53;;;;;;;;;;;;;;;20.97;30.52;100750.75;4417815;32;19991;-49
2021/03/31 08:34:19;;;;;;;;;;;;;;;21.01;30.50;100757.84;4416555;32;19951;-50
2021/03/31 08:36:45;;;;;;;;;;;;;;;20.97;30.66;100753.38;4415695;32;19954;-50
2021/03/31 08:39:11;;;;;;;;;;;;;;;20.93;30.64;100748.94;4417965;32;20295;-50
2021/03/31 08:41:37;;;;;;;;;;;;;;;20.94;30.73;100755.09;4417835;32;20291;-50
2021/03/31 08:44:03;;;;;;;;;;;;;;;20.95;30.74;100752.47;4418785;32;19982;-49
2021/03/31 08:46:30;;;;;;;;;;;;;;;20.92;30.77;100744.47;4417836;32;19994;-52
2021/03/31 08:48:56;;;;;;;;;;;;;;;21.01;30.68;100743.75;4417479;32;19946;-52
2021/03/31 08:51:22;;;;;;;;;;;;;;;21.04;30.64;100747.31;4417013;32;20322;-49
2021/03/31 08:53:47;;;;;;;;;;;;;;;21.05;30.62;100737.63;4413307;32;20012;-52
2021/03/31 08:56:13;;;;;;;;;;;;;;;21.00;30.77;100745.50;4416346;32;20309;-48
2021/03/31 08:58:39;;;;;;;;;;;;;;;20.98;30.81;100741.94;4418055;32;19980;-52
2021/03/31 09:01:05;;;;;;;;;;;;;;;20.95;30.88;100744.53;4417042;32;19955;-52
2021/03/31 09:03:31;;;;;;;;;;;;;;;20.86;31.15;100742.59;4417074;32;19946;-50
2021/03/31 09:05:57;;;;;;;;;;;;;;;20.90;30.98;100739.16;4417737;32;19983;-47
2021/03/31 09:08:23;;;;;;;;;;;;;;;20.86;31.15;100733.78;4411302;32;20038;-51
2021/03/31 09:10:49;;;;;;;;;;;;;;;20.74;31.65;100735.34;4407226;32;20014;-53
2021/03/31 09:13:15;;;;;;;;;;;;;;;20.74;31.13;100738.00;4416739;32;19958;-53
2021/03/31 09:15:41;;;;;;;;;;;;;;;20.49;31.40;100727.00;4415918;32;19950;-57
2021/03/31 09:18:07;;;;;;;;;;;;;;;20.57;31.25;100728.87;4415370;32;20006;-55
2021/03/31 09:20:33;;;;;;;;;;;;;;;20.68;31.30;100721.13;4417021;32;20414;-56
2021/03/31 09:22:59;;;;;;;;;;;;;;;20.78;31.20;100718.63;4417050;32;19943;-57
2021/03/31 09:25:25;;;;;;;;;;;;;;;20.84;31.17;100717.00;4415995;32;19966;-56
2021/03/31 09:27:51;;;;;;;;;;;;;;;20.97;30.97;100718.97;4417214;32;20374;-58
2021/03/31 09:30:17;;;;;;;;;;;;;;;21.03;30.89;100716.41;4417671;32;19954;-57
2021/03/31 09:35:09;;;;;;;;;;;;;;;20.96;31.02;100727.78;4417602;32;20020;-55
2021/03/31 09:37:35;;;;;;;;;;;;;;;20.94;31.06;100716.28;4416432;32;20387;-57
2021/03/31 09:40:01;;;;;;;;;;;;;;;21.03;30.98;100711.09;4417039;32;19990;-56
2021/03/31 09:42:27;;;;;;;;;;;;;;;21.10;30.86;100704.13;4417145;32;19961;-56
2021/03/31 09:44:53;;;;;;;;;;;;;;;21.13;30.85;100704.22;4417904;32;20376;-54
2021/03/31 09:47:18;;;;;;;;;;;;;;;21.03;31.10;100703.16;4399794;32;19974;-57
2021/03/31 09:49:44;;;;;;;;;;;;;;;20.91;31.35;100702.97;4395045;32;19973;-54
2021/03/31 09:52:10;;;;;;;;;;;;;;;20.90;31.37;100702.09;4400929;32;19993;-54
2021/03/31 09:54:36;;;;;;;;;;;;;;;21.05;31.11;100695.25;4400559;32;19985;-57
2021/03/31 09:57:02;;;;;;;;;;;;;;;20.97;31.35;100702.19;4417355;32;20017;-55
2021/03/31 09:59:29;;;;;;;;;;;;;;;20.97;31.33;100694.25;4416849;32;20022;-51
2021/03/31 10:01:55;;;;;;;;;;;;;;;21.12;31.16;100690.94;4417090;32;19950;-54
2021/03/31 10:04:21;;;;;;;;;;;;;;;21.20;30.98;100684.00;4416745;32;19958;-55
2021/03/31 10:06:47;;;;;;;;;;;;;;;21.24;30.91;100680.50;4417204;32;19976;-57
2021/03/31 10:09:13;;;;;;;;;;;;;;;21.25;30.90;100684.06;4415628;32;20320;-55
2021/03/31 10:11:39;;;;;;;;;;;;;;;21.27;30.89;100688.50;4417046;32;19950;-56
2021/03/31 10:14:05;;;;;;;;;;;;;;;21.26;30.95;100681.41;4416934;32;20023;-55
2021/03/31 10:16:32;;;;;;;;;;;;;;;21.26;30.94;100680.53;4415769;32;20383;-56
2021/03/31 10:18:58;;;;;;;;;;;;;;;21.26;31.01;100683.19;4416405;32;19978;-58
2021/03/31 10:21:24;;;;;;;;;;;;;;;21.27;30.98;100680.53;4415914;32;19954;-56
2021/03/31 10:23:50;;;;;;;;;;;;;;;21.26;31.07;100678.78;4416544;32;20018;-57
2021/03/31 10:26:16;;;;;;;;;;;;;;;21.30;31.03;100675.31;4403150;32;19962;-56
2021/03/31 10:28:42;;;;;;;;;;;;;;;21.29;31.00;100665.56;4400150;32;19954;-55
2021/03/31 10:31:08;;;;;;;;;;;;;;;21.29;31.09;100670.84;4411730;32;20009;-52
2021/03/31 10:33:34;;;;;;;;;;;;;;;21.15;31.42;100665.41;4415718;32;19966;-56
2021/03/31 10:36:01;;;;;;;;;;;;;;;21.05;31.58;100664.37;4414961;32;20378;-57
2021/03/31 10:38:31;;;;;;;;;;;;;;;21.21;31.39;100659.28;4413357;32;19958;-58
2021/03/31 10:41:35;;;;;;;;;;;;;;;20.67;32.35;100664.66;4416134;32;19989;-59
2021/03/31 10:49:59;;;;;;;;;;;;;;;20.85;32.56;100652.59;4415945;32;19972;-52
2021/03/31 10:52:03;;;;;;;;;;;;;;;21.01;32.22;100657.25;4397277;32;19977;-54
2021/03/31 10:54:29;;;;;;;;;;;;;;;21.23;31.85;100646.94;4412717;32;19985;-53
2021/03/31 10:57:12;;;;;;;;;;;;;;;21.34;31.63;100644.44;4416040;32;19969;-54
2021/03/31 10:59:38;;;;;;;;;;;;;;;21.32;31.66;100636.47;4415524;32;19954;-55
2021/03/31 11:02:04;;;;;;;;;;;;;;;21.37;31.45;100628.59;4416816;32;20280;-54
2021/03/31 11:04:30;;;;;;;;;;;;;;;21.38;31.47;100625.06;4417043;32;19965;-55
2021/03/31 11:06:56;;;;;;;;;;;;;;;21.25;31.87;100628.44;4416394;32;20369;-55
2021/03/31 11:09:22;;;;;;;;;;;;;;;21.31;31.84;100623.22;4415584;32;19958;-54
2021/03/31 11:11:48;;;;;;;;;;;;;;;21.36;31.79;100620.63;4417268;32;20017;-56
2021/03/31 11:14:16;;;;;;;;;;;;;;;21.23;31.90;100622.22;4416222;32;19962;-57
2021/03/31 11:16:47;;;;;;;;;;;;;;;21.13;31.66;100619.47;4414700;32;19947;-53
2021/03/31 11:27:26;;;;;;;;;;;;;;;21.33;31.68;100618.81;4397879;32;20013;-54
2021/03/31 11:29:52;;;;;;;;;;;;;;;21.27;31.81;100616.09;4414662;32;19986;-54
2021/03/31 11:32:19;;;;;;;;;;;;;;;21.32;31.88;100610.00;4415036;32;19951;-52
2021/03/31 11:34:45;;;;;;;;;;;;;;;21.33;31.84;100611.78;4416500;32;19974;-54
2021/03/31 11:37:11;;;;;;;;;;;;;;;21.29;31.98;100601.97;4416423;32;19993;-54
2021/03/31 11:39:36;;;;;;;;;;;;;;;21.36;31.94;100599.44;4416398;32;19964;-54
2021/03/31 11:42:02;;;;;;;;;;;;;;;21.37;31.93;100586.22;4416842;32;19972;-54
2021/03/31 11:44:28;;;;;;;;;;;;;;;21.38;31.93;100577.38;4416851;32;20580;-51
2021/03/31 11:46:54;;;;;;;;;;;;;;;21.40;31.94;100580.03;4416369;32;20306;-55
2021/03/31 11:49:20;;;;;;;;;;;;;;;21.40;32.00;100569.44;4417162;32;19984;-55
2021/03/31 11:51:46;;;;;;;;;;;;;;;21.43;31.95;100575.66;4417656;32;19951;-54
2021/03/31 11:54:12;;;;;;;;;;;;;;;21.42;32.02;100563.28;4415085;32;19950;-53
2021/03/31 11:56:38;;;;;;;;;;;;;;;21.43;31.99;100564.19;4416959;32;20014;-54
2021/03/31 11:59:04;;;;;;;;;;;;;;;21.41;32.05;100561.53;4414674;32;19950;-52
2021/03/31 12:01:30;;;;;;;;;;;;;;;21.41;32.05;100552.66;4416210;32;19961;-53
2021/03/31 12:03:56;;;;;;;;;;;;;;;21.43;32.04;100553.59;4409976;32;20267;-55
2021/03/31 12:06:22;;;;;;;;;;;;;;;21.43;32.04;100546.53;4417210;32;19950;-56
2021/03/31 12:08:49;;;;;;;;;;;;;;;21.41;32.07;100536.78;4416322;32;20339;-54
2021/03/31 12:11:16;;;;;;;;;;;;;;;21.42;32.11;100535.91;4417019;32;19957;-55
2021/03/31 12:13:42;;;;;;;;;;;;;;;21.43;32.10;100533.28;4417124;32;19966;-54
2021/03/31 12:16:07;;;;;;;;;;;;;;;21.45;32.10;100530.66;4408312;32;19986;-51
2021/03/31 12:18:33;;;;;;;;;;;;;;;21.45;32.13;100520.06;4416269;32;20322;-55
2021/03/31 12:20:59;;;;;;;;;;;;;;;21.46;32.13;100521.84;4417317;32;19943;-56
2021/03/31 12:23:25;;;;;;;;;;;;;;;21.46;32.15;100519.19;4416629;32;19958;-54
2021/03/31 12:25:51;;;;;;;;;;;;;;;21.47;32.20;100518.31;4416107;32;20344;-52
2021/03/31 12:28:21;;;;;;;;;;;;;;;21.48;32.16;100515.69;4414741;32;19938;-55
2021/03/31 12:30:46;;;;;;;;;;;;;;;21.51;32.17;100514.81;4417009;32;19950;-50
2021/03/31 12:33:13;;;;;;;;;;;;;;;21.52;32.19;100511.28;4416642;32;19980;-55
2021/03/31 12:35:38;;;;;;;;;;;;;;;21.53;32.20;100507.75;4415613;32;20132;-55
2021/03/31 12:38:04;;;;;;;;;;;;;;;21.55;32.23;100502.47;4412395;32;19954;-54
2021/03/31 12:40:30;;;;;;;;;;;;;;;21.57;32.24;100501.63;4417714;32;19954;-54
2021/03/31 12:42:56;;;;;;;;;;;;;;;21.57;32.25;100504.28;4417648;32;20000;-55
2021/03/31 12:45:22;;;;;;;;;;;;;;;21.57;32.27;100496.34;4419157;32;19964;-54